Time;durP1;ratioP1;P1;durP2;ratioP2;P2;SDS_P1;SDS_P2;PMS_P1;PMS_P2;Temp;Humidity;BMP_temperature;BMP_pressure;BME280_temperature;BME280_humidity;BME280_pressure;Samples;Min_cycle;Max_cycle;Signal;HPM_P1;HPM_P2
2022/02/04 00:24:52;;;;;;;9.58;8.05;;;5.50;99.90;;;;;;1858786;77;21076;-73
2022/02/04 00:27:23;;;;;;;13.83;8.35;;;5.50;99.90;;;;;;1858619;77;21150;-73
2022/02/04 00:30:00;;;;;;;12.43;8.75;;;5.60;99.90;;;;;;1858243;77;21103;-74
2022/02/04 00:32:24;;;;;;;14.85;8.83;;;5.70;99.90;;;;;;1857568;76;21104;-73
2022/02/04 00:34:57;;;;;;;10.45;8.20;;;5.50;99.90;;;;;;1858264;77;21116;-73
2022/02/04 00:37:32;;;;;;;12.28;8.78;;;5.50;99.90;;;;;;1857485;76;21104;-74
2022/02/04 00:40:07;;;;;;;15.68;8.48;;;5.70;99.90;;;;;;1857033;77;21165;-74
2022/02/04 00:42:23;;;;;;;11.80;8.83;;;5.70;99.90;;;;;;1855519;76;21098;-73
2022/02/04 00:44:58;;;;;;;12.03;8.68;;;5.80;99.90;;;;;;1858603;76;21055;-73
2022/02/04 00:47:23;;;;;;;13.05;8.98;;;5.70;99.90;;;;;;1857434;76;21076;-75
2022/02/04 00:57:50;;;;;;;16.12;9.25;;;5.50;99.90;;;;;;1858720;77;21087;-74
2022/02/04 01:27:34;;;;;;;14.07;8.08;;;5.70;99.90;;;;;;1858451;77;21101;-74
2022/02/04 01:30:05;;;;;;;17.00;8.20;;;5.70;99.90;;;;;;1858539;76;21456;-74
2022/02/04 01:32:30;;;;;;;13.53;8.55;;;5.80;99.90;;;;;;1858031;77;21183;-75
2022/02/04 01:34:57;;;;;;;11.93;8.13;;;5.70;99.90;;;;;;1858942;77;21049;-74
2022/02/04 01:37:27;;;;;;;11.63;8.23;;;5.80;99.90;;;;;;1858567;77;21102;-74
2022/02/04 01:39:54;;;;;;;12.18;7.87;;;5.70;99.90;;;;;;1859437;76;21476;-74
2022/02/04 01:42:21;;;;;;;12.43;8.10;;;5.70;99.90;;;;;;1858435;77;21059;-74
2022/02/04 01:44:48;;;;;;;10.72;7.85;;;5.80;99.90;;;;;;1858559;77;21405;-73
2022/02/04 01:47:16;;;;;;;13.08;7.87;;;5.80;99.90;;;;;;1858411;77;21055;-73
2022/02/04 01:49:43;;;;;;;15.68;8.58;;;5.90;99.90;;;;;;1858330;76;21121;-74
2022/02/04 01:52:11;;;;;;;12.93;9.13;;;5.80;99.90;;;;;;1858519;77;21121;-74
2022/02/04 01:54:38;;;;;;;11.03;8.55;;;5.60;99.90;;;;;;1858508;77;21125;-74
2022/02/04 01:57:06;;;;;;;17.27;8.98;;;5.70;99.90;;;;;;1858420;77;21117;-73
2022/02/04 01:59:33;;;;;;;11.88;8.00;;;5.70;99.90;;;;;;1858423;77;21048;-74
2022/02/04 02:02:00;;;;;;;15.83;7.78;;;5.70;99.90;;;;;;1858592;77;21456;-74
2022/02/04 02:04:28;;;;;;;15.15;7.85;;;5.70;99.90;;;;;;1858496;77;21060;-74
2022/02/04 02:07:01;;;;;;;8.95;7.67;;;5.80;99.90;;;;;;1858368;77;21095;-73
2022/02/04 02:09:42;;;;;;;11.35;7.75;;;5.90;99.90;;;;;;1857960;76;21121;-75
2022/02/04 02:12:00;;;;;;;15.40;8.50;;;5.90;99.90;;;;;;1855492;77;21075;-74
2022/02/04 02:14:28;;;;;;;14.65;7.70;;;5.80;99.90;;;;;;1857882;76;21182;-75
2022/02/04 02:33:54;;;;;;;13.88;7.55;;;5.80;99.90;;;;;;1858461;77;21183;-75
2022/02/04 02:36:31;;;;;;;11.08;7.12;;;5.80;99.90;;;;;;1855054;76;21126;-74
2022/02/04 02:44:20;;;;;;;9.23;6.72;;;5.80;99.90;;;;;;1858421;77;21088;-74
2022/02/04 02:49:37;;;;;;;8.80;6.33;;;5.90;99.90;;;;;;1858446;77;21487;-73
2022/02/04 02:52:09;;;;;;;7.70;6.17;;;5.90;99.90;;;;;;1855478;76;21137;-75
2022/02/04 03:02:04;;;;;;;14.20;6.47;;;6.00;99.90;;;;;;1821405;76;21056;-74
2022/02/04 03:04:31;;;;;;;8.15;6.22;;;6.10;99.90;;;;;;1859265;75;21463;-73
2022/02/04 03:06:58;;;;;;;6.55;5.85;;;6.20;99.90;;;;;;1858751;77;21048;-73
2022/02/04 03:09:25;;;;;;;10.80;6.15;;;6.20;99.90;;;;;;1858890;77;21048;-73
2022/02/04 03:11:53;;;;;;;7.08;5.72;;;6.10;99.90;;;;;;1858823;76;21137;-73
2022/02/04 03:14:20;;;;;;;9.88;6.30;;;6.10;99.90;;;;;;1858707;77;21032;-74
2022/02/04 03:16:47;;;;;;;8.35;6.22;;;6.20;99.90;;;;;;1858806;76;21106;-74
2022/02/04 03:19:16;;;;;;;6.72;5.70;;;6.30;99.90;;;;;;1858769;77;21185;-74
2022/02/04 03:21:46;;;;;;;10.88;6.33;;;6.30;99.90;;;;;;1858803;77;21153;-74
2022/02/04 03:24:16;;;;;;;6.35;5.40;;;6.30;99.90;;;;;;1858385;77;21570;-74
2022/02/04 03:29:20;;;;;;;6.53;5.62;;;6.40;99.90;;;;;;1834725;77;21083;-74
2022/02/04 03:31:50;;;;;;;5.60;5.10;;;6.30;99.90;;;;;;1858489;76;21274;-76
2022/02/04 03:34:14;;;;;;;9.70;5.42;;;6.20;99.90;;;;;;1857849;76;21100;-75
2022/02/04 03:36:41;;;;;;;5.45;4.95;;;6.20;99.90;;;;;;1858697;77;21051;-74
2022/02/04 03:39:09;;;;;;;6.83;5.15;;;6.30;99.90;;;;;;1858703;76;21055;-74
2022/02/04 03:41:36;;;;;;;6.55;5.58;;;6.40;99.90;;;;;;1861016;77;21060;-74
2022/02/04 03:44:03;;;;;;;8.85;5.95;;;6.40;99.90;;;;;;1858710;76;21113;-74
2022/02/04 03:46:31;;;;;;;8.18;5.53;;;6.50;99.90;;;;;;1858733;77;21028;-75
2022/02/04 03:48:58;;;;;;;8.33;5.60;;;6.40;99.90;;;;;;1858695;76;21206;-75
2022/02/04 03:51:25;;;;;;;9.20;5.45;;;6.30;99.90;;;;;;1858901;77;21098;-75
2022/02/04 03:53:54;;;;;;;8.33;6.28;;;6.50;99.90;;;;;;1858681;77;21125;-74
2022/02/04 03:56:21;;;;;;;8.95;6.20;;;6.50;99.90;;;;;;1858659;77;21032;-73
2022/02/04 03:58:49;;;;;;;7.17;6.20;;;6.50;99.90;;;;;;1858646;77;21067;-73
2022/02/04 04:01:16;;;;;;;6.72;5.45;;;6.60;99.90;;;;;;1858754;76;21039;-73
2022/02/04 04:03:44;;;;;;;9.53;6.42;;;6.50;99.90;;;;;;1858488;77;21436;-72
2022/02/04 04:06:12;;;;;;;8.65;5.90;;;6.50;99.90;;;;;;1858444;77;21565;-75
2022/02/04 04:08:40;;;;;;;7.05;5.72;;;6.50;99.90;;;;;;1858587;76;21142;-74
2022/02/04 04:11:07;;;;;;;10.32;5.62;;;6.60;99.90;;;;;;1859100;75;21455;-74
2022/02/04 04:13:34;;;;;;;9.88;5.62;;;6.50;99.90;;;;;;1858439;77;21032;-74
2022/02/04 04:16:02;;;;;;;11.48;5.70;;;6.40;99.90;;;;;;1858451;76;21117;-74
2022/02/04 04:18:29;;;;;;;19.12;5.78;;;6.50;99.90;;;;;;1858539;77;21437;-75
2022/02/04 04:20:56;;;;;;;7.47;5.50;;;6.50;99.90;;;;;;1858490;77;21129;-74
2022/02/04 04:23:23;;;;;;;6.37;5.58;;;6.40;99.90;;;;;;1858425;77;21129;-75
2022/02/04 04:25:51;;;;;;;5.72;5.00;;;6.40;99.90;;;;;;1858582;77;21029;-74
2022/02/04 04:28:18;;;;;;;6.03;4.75;;;6.40;99.90;;;;;;1850961;77;21063;-75
2022/02/04 04:30:47;;;;;;;8.73;5.37;;;6.40;99.90;;;;;;1858596;76;21503;-75
2022/02/04 04:33:14;;;;;;;7.17;5.15;;;6.40;99.90;;;;;;1857693;76;21150;-75
2022/02/04 04:35:42;;;;;;;6.25;5.50;;;6.40;99.90;;;;;;1858536;77;21122;-74
2022/02/04 04:38:20;;;;;;;10.23;6.03;;;6.30;99.90;;;;;;1858515;76;21028;-75
2022/02/04 05:30:07;;;;;;;9.20;5.95;;;6.10;99.90;;;;;;1858567;77;21589;-74
2022/02/04 05:32:34;;;;;;;11.53;6.30;;;6.00;99.90;;;;;;1858478;77;21067;-74
2022/02/04 05:35:06;;;;;;;12.00;5.95;;;6.10;99.90;;;;;;1858380;77;21517;-74
2022/02/04 05:37:33;;;;;;;7.67;5.95;;;6.20;99.90;;;;;;1858567;76;21104;-74
2022/02/04 05:40:05;;;;;;;10.82;6.40;;;6.20;99.90;;;;;;1858302;76;21104;-72
2022/02/04 05:42:33;;;;;;;9.58;6.45;;;6.00;99.90;;;;;;1856161;76;21104;-74
2022/02/04 05:45:02;;;;;;;9.60;6.80;;;5.90;99.90;;;;;;1857875;74;21239;-74
2022/02/04 05:47:27;;;;;;;6.90;5.80;;;5.90;99.90;;;;;;1857997;76;21176;-74
2022/02/04 05:52:47;;;;;;;10.05;6.20;;;6.10;99.90;;;;;;1858535;77;21112;-73
2022/02/04 05:57:59;;;;;;;7.95;5.78;;;6.10;99.90;;;;;;1858458;77;21590;-74
2022/02/04 06:00:33;;;;;;;7.12;5.55;;;6.10;99.90;;;;;;1856897;76;21590;-75
2022/02/04 06:05:59;;;;;;;7.15;5.20;;;6.00;99.90;;;;;;1858316;77;21550;-74
2022/02/04 06:13:25;;;;;;;6.55;5.35;;;6.10;99.90;;;;;;1860436;76;21117;-75
2022/02/04 06:23:55;;;;;;;8.40;5.60;;;6.20;99.90;;;;;;1858343;77;21121;-74
2022/02/04 06:26:22;;;;;;;8.70;6.00;;;6.20;99.90;;;;;;1858203;76;21047;-74
2022/02/04 06:28:49;;;;;;;7.95;5.75;;;6.20;99.90;;;;;;1858358;76;21468;-74
2022/02/04 06:31:17;;;;;;;7.03;5.72;;;6.20;99.90;;;;;;1858301;77;21036;-74
2022/02/04 06:33:44;;;;;;;6.00;5.22;;;6.10;99.90;;;;;;1858269;77;21435;-75
2022/02/04 06:36:11;;;;;;;9.05;5.30;;;6.10;99.90;;;;;;1859284;77;21573;-74
2022/02/04 06:38:39;;;;;;;6.87;5.53;;;6.00;99.90;;;;;;1858389;77;21117;-74
2022/02/04 06:41:06;;;;;;;7.35;5.92;;;6.00;99.90;;;;;;1858378;77;21539;-74
2022/02/04 06:43:35;;;;;;;8.28;5.30;;;6.00;99.90;;;;;;1858368;76;21129;-74
2022/02/04 06:46:04;;;;;;;7.03;5.40;;;6.00;99.90;;;;;;1858317;76;21522;-73
2022/02/04 06:48:31;;;;;;;8.43;4.47;;;6.00;99.90;;;;;;1858443;77;21071;-75
2022/02/04 06:50:59;;;;;;;9.00;4.80;;;6.00;99.90;;;;;;1858119;76;21047;-74
2022/02/04 06:53:26;;;;;;;5.47;4.92;;;6.00;99.90;;;;;;1858815;77;21525;-74
2022/02/04 06:55:53;;;;;;;6.28;5.05;;;6.00;99.90;;;;;;1858085;77;21056;-75
2022/02/04 06:58:20;;;;;;;6.42;4.85;;;6.10;99.90;;;;;;1858213;76;21129;-75
2022/02/04 07:00:48;;;;;;;8.85;5.53;;;6.10;99.90;;;;;;1858182;77;21067;-75
2022/02/04 07:03:15;;;;;;;7.30;5.42;;;6.10;99.90;;;;;;1858142;77;21064;-77
2022/02/04 07:05:53;;;;;;;7.45;5.17;;;6.10;99.90;;;;;;1858167;77;21529;-76
2022/02/04 07:08:21;;;;;;;9.20;5.15;;;6.10;99.90;;;;;;1856505;74;21104;-76
2022/02/04 07:11:18;;;;;;;6.65;4.80;;;5.90;99.90;;;;;;1856311;77;21087;-76
2022/02/04 07:13:19;;;;;;;8.03;4.70;;;5.90;99.90;;;;;;1848021;76;21071;-75
2022/02/04 07:20:56;;;;;;;6.00;4.78;;;6.10;99.90;;;;;;1858157;77;21185;-75
2022/02/04 07:23:23;;;;;;;5.22;4.70;;;6.00;99.90;;;;;;1858018;77;21055;-75
2022/02/04 07:25:50;;;;;;;6.22;4.60;;;6.10;99.90;;;;;;1857952;77;21137;-76
2022/02/04 07:28:18;;;;;;;6.53;4.62;;;6.10;99.90;;;;;;1858106;77;21136;-74
2022/02/04 07:30:46;;;;;;;6.70;4.45;;;6.10;99.90;;;;;;1858123;77;21381;-76
2022/02/04 07:33:20;;;;;;;4.53;4.05;;;6.20;99.90;;;;;;1858896;77;21205;-77
2022/02/04 07:41:05;;;;;;;8.00;4.72;;;6.10;99.90;;;;;;1858458;77;21116;-76
2022/02/04 07:43:31;;;;;;;7.35;4.85;;;6.20;99.90;;;;;;1858172;76;21187;-76
2022/02/04 07:45:59;;;;;;;5.72;5.00;;;6.30;99.90;;;;;;1858448;76;21448;-76
2022/02/04 07:48:27;;;;;;;6.53;4.60;;;6.30;99.90;;;;;;1858439;76;21141;-75
2022/02/04 07:50:54;;;;;;;5.33;4.75;;;6.40;99.90;;;;;;1858415;77;21083;-75
2022/02/04 07:53:22;;;;;;;6.37;4.90;;;6.50;99.90;;;;;;1858880;77;21514;-76
2022/02/04 07:55:50;;;;;;;6.28;4.30;;;6.40;99.90;;;;;;1858829;77;21231;-75
2022/02/04 07:58:18;;;;;;;7.62;5.42;;;6.60;99.90;;;;;;1858681;76;21186;-76
2022/02/04 08:00:46;;;;;;;6.70;5.60;;;6.60;99.90;;;;;;1858729;77;21503;-76
2022/02/04 08:03:29;;;;;;;6.70;4.75;;;6.40;99.90;;;;;;1858660;77;21083;-75
2022/02/04 08:05:42;;;;;;;5.62;5.00;;;6.40;99.90;;;;;;1856095;76;21092;-75
2022/02/04 08:08:18;;;;;;;6.30;4.70;;;6.40;99.90;;;;;;1858728;77;21072;-75
2022/02/04 08:13:45;;;;;;;;;;;6.50;99.90;;;;;;1807880;77;21503;-75
2022/02/04 08:24:06;;;;;;;8.35;5.83;;;6.60;99.90;;;;;;1778847;80;21097;-81
2022/02/04 08:34:49;;;;;;;7.35;5.90;;;7.20;99.90;;;;;;1859147;74;21096;-80
2022/02/04 08:50:57;;;;;;;5.72;4.97;;;7.00;99.90;;;;;;1861101;74;21116;-81
2022/02/04 08:55:49;;;;;;;7.65;5.62;;;7.10;99.90;;;;;;1832124;75;21086;-80
2022/02/04 09:00:58;;;;;;;10.08;5.28;;;7.30;99.90;;;;;;1871703;75;21082;-78
2022/02/04 09:03:37;;;;;;;5.90;5.22;;;7.50;99.90;;;;;;1877741;74;21094;-78
2022/02/04 09:06:09;;;;;;;5.78;5.28;;;7.40;99.90;;;;;;1868689;73;21235;-79
2022/02/04 09:08:34;;;;;;;7.62;5.10;;;7.60;99.90;;;;;;1865599;76;21232;-78
2022/02/04 09:11:05;;;;;;;6.42;4.90;;;7.70;99.90;;;;;;1866168;74;21096;-79
2022/02/04 09:19:07;;;;;;;7.80;5.03;;;7.90;99.90;;;;;;1868614;74;21141;-80
2022/02/04 09:21:50;;;;;;;5.47;4.78;;;8.10;99.90;;;;;;1868662;75;21149;-81
2022/02/04 09:24:06;;;;;;;7.30;4.45;;;8.30;99.90;;;;;;1858451;77;21512;-82
2022/02/04 09:26:34;;;;;;;4.65;4.17;;;8.40;99.90;;;;;;1861271;77;21044;-80
2022/02/04 09:29:01;;;;;;;4.53;4.10;;;8.50;99.90;;;;;;1862440;74;21107;-82
2022/02/04 09:31:29;;;;;;;5.42;3.92;;;8.30;99.90;;;;;;1863049;76;21091;-79
2022/02/04 09:33:56;;;;;;;4.60;3.72;;;8.50;99.90;;;;;;1868955;74;21136;-79
2022/02/04 09:36:23;;;;;;;4.50;3.85;;;8.40;99.90;;;;;;1873230;75;21467;-80
2022/02/04 09:38:52;;;;;;;6.10;3.77;;;8.40;99.90;;;;;;1867137;75;21097;-80
2022/02/04 09:41:20;;;;;;;4.25;3.12;;;8.20;99.90;;;;;;1869825;75;21060;-79
2022/02/04 09:43:49;;;;;;;4.00;2.72;;;8.30;99.90;;;;;;1861274;76;21107;-81
2022/02/04 09:46:16;;;;;;;3.17;2.72;;;8.50;99.90;;;;;;1866466;74;21511;-78
2022/02/04 09:48:46;;;;;;;2.62;2.40;;;8.40;99.90;;;;;;1860359;76;21095;-78
2022/02/04 09:51:16;;;;;;;3.30;2.47;;;8.40;99.90;;;;;;1861098;75;21153;-81
2022/02/04 10:05:12;;;;;;;3.40;3.10;;;8.70;99.90;;;;;;1864404;75;21091;-85
2022/02/04 10:12:51;;;;;;;3.12;2.70;;;8.90;99.90;;;;;;1869378;75;21148;-83
2022/02/04 10:15:17;;;;;;;2.40;2.20;;;8.90;99.90;;;;;;1870883;75;21156;-83
2022/02/04 10:17:39;;;;;;;2.50;2.27;;;8.70;99.90;;;;;;1862510;75;21435;-81
2022/02/04 10:20:04;;;;;;;2.98;2.35;;;8.70;99.90;;;;;;1851787;75;21124;-78
2022/02/04 10:22:32;;;;;;;5.08;2.52;;;8.70;99.90;;;;;;1850641;75;21066;-79
2022/02/04 10:25:11;;;;;;;3.95;2.75;;;8.70;99.90;;;;;;1857287;76;21095;-79
2022/02/04 10:27:41;;;;;;;2.20;2.00;;;8.70;99.90;;;;;;1851529;75;21169;-78
2022/02/04 10:30:11;;;;;;;2.42;2.22;;;8.70;99.90;;;;;;1851349;75;21064;-77
2022/02/04 10:32:41;;;;;;;4.03;1.92;;;8.60;99.90;;;;;;1866487;75;21074;-77
2022/02/04 10:35:20;;;;;;;2.00;1.90;;;8.60;99.90;;;;;;1854149;75;21585;-79
2022/02/04 10:41:01;;;;;;;2.10;2.00;;;8.70;99.90;;;;;;1852497;77;21174;-78
2022/02/04 10:43:35;;;;;;;6.10;2.27;;;8.90;99.90;;;;;;1850095;76;21473;-79
2022/02/04 10:46:02;;;;;;;1.67;1.57;;;8.90;99.90;;;;;;1832800;76;21156;-78
2022/02/04 10:48:47;;;;;;;1.90;1.80;;;8.90;99.90;;;;;;1853620;75;21169;-78
2022/02/04 10:54:38;;;;;;;2.92;2.12;;;9.00;99.90;;;;;;1853273;75;21614;-78
2022/02/04 11:01:57;;;;;;;5.08;2.40;;;8.90;99.90;;;;;;1867180;74;21234;-78
2022/02/04 11:04:11;;;;;;;1.85;1.75;;;8.80;99.90;;;;;;1860768;75;21099;-78
2022/02/04 11:09:31;;;;;;;3.47;1.70;;;9.40;99.90;;;;;;1862355;74;21096;-78
2022/02/04 11:22:00;;;;;;;2.05;1.57;;;10.70;99.90;;;;;;1861355;74;21472;-77
2022/02/04 11:31:05;;;;;;;2.10;1.40;;;9.80;99.90;;;;;;1862637;74;21086;-76
2022/02/04 11:33:51;;;;;;;1.37;1.27;;;9.80;99.90;;;;;;1863875;75;21165;-78
2022/02/04 11:54:30;;;;;;;3.05;1.02;;;8.90;99.90;;;;;;1871950;75;20124;-79
2022/02/04 11:57:12;;;;;;;0.85;0.85;;;8.90;99.90;;;;;;1870002;75;21084;-89
2022/02/04 11:59:43;;;;;;;1.12;1.02;;;8.80;99.90;;;;;;1860995;77;21162;-90
2022/02/04 12:02:33;;;;;;;1.20;1.10;;;8.80;99.90;;;;;;1870475;74;21526;-91
2022/02/04 12:05:11;;;;;;;0.95;0.88;;;8.90;99.90;;;;;;1867092;74;21129;-91
2022/02/04 12:07:43;;;;;;;0.72;0.68;;;9.00;99.90;;;;;;1867620;74;21103;-88
2022/02/04 12:10:31;;;;;;;0.60;0.60;;;8.80;99.90;;;;;;1867524;74;21472;-88
2022/02/04 12:13:00;;;;;;;4.12;0.88;;;8.70;99.90;;;;;;1866804;74;21080;-89
2022/02/04 12:15:30;;;;;;;0.80;0.78;;;8.80;99.90;;;;;;1865534;75;21245;-88
2022/02/04 12:18:08;;;;;;;0.70;0.70;;;8.70;99.90;;;;;;1858901;74;21142;-88
2022/02/04 12:20:53;;;;;;;1.72;1.00;;;8.80;99.90;;;;;;1864995;74;21164;-88
2022/02/04 12:23:33;;;;;;;2.70;1.07;;;8.70;99.90;;;;;;1863114;75;21128;-87
2022/02/04 12:26:05;;;;;;;1.00;0.90;;;8.80;99.90;;;;;;1862414;74;21163;-88
2022/02/04 12:29:01;;;;;;;0.75;0.65;;;8.90;99.90;;;;;;1859493;76;21087;-87
2022/02/04 12:31:35;;;;;;;1.07;0.70;;;8.80;99.90;;;;;;1873380;75;21295;-87
2022/02/04 12:34:12;;;;;;;1.02;0.90;;;8.80;99.90;;;;;;1865751;74;21153;-88
2022/02/04 12:36:41;;;;;;;1.82;1.00;;;9.00;99.90;;;;;;1858466;74;21084;-88
2022/02/04 12:39:28;;;;;;;0.88;0.68;;;9.20;99.90;;;;;;1872411;74;21160;-87
2022/02/04 12:41:56;;;;;;;0.60;0.60;;;9.00;99.90;;;;;;1840429;75;21078;-88
2022/02/04 12:44:29;;;;;;;1.27;0.75;;;9.00;99.90;;;;;;1866792;74;21051;-83
2022/02/04 12:47:01;;;;;;;2.33;1.17;;;8.90;99.90;;;;;;1843507;75;21054;-86
2022/02/04 12:49:30;;;;;;;4.67;1.02;;;8.90;99.90;;;;;;1864980;74;21087;-82
2022/02/04 12:52:16;;;;;;;1.32;0.95;;;8.80;99.90;;;;;;1826066;77;21138;-81
2022/02/04 12:54:55;;;;;;;0.80;0.75;;;8.80;99.90;;;;;;1870446;75;21116;-83
2022/02/04 13:00:18;;;;;;;0.80;0.80;;;9.30;99.90;;;;;;1867928;75;21161;-82
2022/02/04 13:02:48;;;;;;;0.85;0.78;;;9.30;99.90;;;;;;1856425;74;21243;-84
2022/02/04 13:07:41;;;;;;;3.47;0.60;;;9.60;99.90;;;;;;1814690;75;21056;-85
2022/02/04 13:10:00;;;;;;;3.50;1.02;;;9.90;99.90;;;;;;1864853;74;21466;-86
2022/02/04 13:12:27;;;;;;;1.47;0.70;;;9.60;99.90;;;;;;1877595;75;21219;-80
2022/02/04 13:14:55;;;;;;;2.05;1.00;;;9.50;99.90;;;;;;1864471;75;21326;-85
2022/02/04 13:17:33;;;;;;;1.67;1.00;;;9.30;99.90;;;;;;1866225;74;21087;-80
2022/02/04 13:20:03;;;;;;;1.75;0.90;;;9.20;99.90;;;;;;1834748;76;21492;-84
2022/02/04 13:22:30;;;;;;;2.05;0.98;;;9.00;99.90;;;;;;1839909;76;21203;-86
2022/02/04 13:25:09;;;;;;;0.90;0.90;;;8.90;99.90;;;;;;1866539;75;21211;-86
2022/02/04 13:27:36;;;;;;;0.88;0.88;;;8.80;99.90;;;;;;1873016;73;21075;-87
2022/02/04 13:30:24;;;;;;;1.65;0.98;;;8.80;99.90;;;;;;1859143;74;21160;-85
2022/02/04 13:32:53;;;;;;;1.07;1.07;;;8.70;99.90;;;;;;1866207;75;21152;-87
2022/02/04 13:35:38;;;;;;;1.52;1.20;;;8.70;99.90;;;;;;1861704;74;21468;-85
2022/02/04 13:38:10;;;;;;;1.15;1.05;;;8.60;99.90;;;;;;1872532;75;21051;-86
2022/02/04 13:40:48;;;;;;;1.07;1.00;;;8.70;99.90;;;;;;1871347;75;21184;-88
2022/02/04 13:43:27;;;;;;;1.00;1.00;;;8.70;99.90;;;;;;1876578;75;21146;-86
2022/02/04 13:46:03;;;;;;;1.67;1.00;;;8.70;99.90;;;;;;1834957;74;21125;-88
2022/02/04 13:48:37;;;;;;;1.57;1.10;;;8.60;99.90;;;;;;1866701;74;21112;-87
2022/02/04 13:52:00;;;;;;;0.90;0.90;;;8.60;99.90;;;;;;1857270;74;21168;-86
2022/02/04 13:53:52;;;;;;;1.05;1.00;;;8.90;99.90;;;;;;1836002;74;21530;-86
2022/02/04 13:56:27;;;;;;;1.32;0.90;;;9.10;99.90;;;;;;1845221;74;21165;-83
2022/02/04 13:58:51;;;;;;;2.10;0.88;;;9.60;99.90;;;;;;1833307;77;21479;-86
2022/02/04 14:01:20;;;;;;;0.90;0.80;;;9.30;99.90;;;;;;1862652;74;21268;-87
2022/02/04 14:03:50;;;;;;;4.40;1.07;;;8.90;99.90;;;;;;1871654;73;21095;-81
2022/02/04 14:06:23;;;;;;;;;;;8.50;99.90;;;;;;1873609;75;21511;-84
2022/02/04 14:08:52;;;;;;;1.37;0.90;;;8.40;99.90;;;;;;1868990;74;20168;-85
2022/02/04 14:11:36;;;;;;;1.02;0.80;;;8.30;99.90;;;;;;1858511;74;21120;-85
2022/02/04 14:14:11;;;;;;;1.42;1.05;;;8.20;99.90;;;;;;1859065;74;21075;-78
2022/02/04 14:16:45;;;;;;;1.10;0.90;;;8.10;99.90;;;;;;1865932;74;21078;-84
2022/02/04 14:19:12;;;;;;;3.45;1.00;;;7.90;99.90;;;;;;1861151;74;21167;-85
2022/02/04 14:21:40;;;;;;;4.80;1.12;;;8.10;99.90;;;;;;1864967;75;21080;-79
2022/02/04 14:24:10;;;;;;;1.07;0.98;;;8.00;99.90;;;;;;1865930;74;21169;-82
2022/02/04 14:26:39;;;;;;;0.82;0.70;;;8.10;99.90;;;;;;1862681;74;21118;-83
2022/02/04 14:29:14;;;;;;;1.55;0.80;;;8.10;99.90;;;;;;1874105;74;21153;-83
2022/02/04 14:37:18;;;;;;;0.57;0.57;;;8.10;99.90;;;;;;1857666;75;21472;-81
2022/02/04 14:53:45;;;;;;;2.67;0.80;;;8.00;99.90;;;;;;1855681;75;21602;-80
2022/02/04 14:58:57;;;;;;;3.87;0.85;;;8.00;99.90;;;;;;1874322;75;21129;-78
2022/02/04 15:03:55;;;;;;;1.55;0.70;;;7.90;99.90;;;;;;1870200;75;21235;-78
2022/02/04 15:06:16;;;;;;;0.68;0.62;;;8.00;99.90;;;;;;1861541;74;21116;-80
2022/02/04 15:08:44;;;;;;;1.22;1.00;;;8.00;99.90;;;;;;1872631;75;21086;-79
2022/02/04 15:11:15;;;;;;;3.50;0.60;;;7.90;99.90;;;;;;1866235;76;21174;-78
2022/02/04 15:13:41;;;;;;;1.35;0.70;;;7.90;99.90;;;;;;1860636;75;21206;-78
2022/02/04 15:16:09;;;;;;;1.67;1.02;;;8.00;99.90;;;;;;1850107;75;21103;-78
2022/02/04 15:18:37;;;;;;;1.10;0.82;;;7.90;99.90;;;;;;1860662;76;21214;-79
2022/02/04 15:21:09;;;;;;;9.08;1.40;;;7.90;99.90;;;;;;1871410;75;21059;-76
2022/02/04 15:23:34;;;;;;;0.70;0.70;;;7.90;99.90;;;;;;1861984;75;21194;-78
2022/02/04 15:26:03;;;;;;;0.60;0.60;;;7.90;99.90;;;;;;1856692;75;21091;-77
2022/02/04 15:28:41;;;;;;;4.60;0.90;;;7.90;99.90;;;;;;1856393;75;21471;-78
2022/02/04 15:31:09;;;;;;;3.92;0.65;;;7.90;99.90;;;;;;1861048;75;21161;-77
2022/02/04 15:33:36;;;;;;;;;;;7.90;99.90;;;;;;1862635;76;21100;-76
2022/02/04 15:36:05;;;;;;;4.95;0.72;;;7.80;99.90;;;;;;1859089;75;20121;-77
2022/02/04 15:38:33;;;;;;;0.90;0.80;;;7.90;99.90;;;;;;1860227;75;21107;-77
2022/02/04 15:41:14;;;;;;;0.70;0.70;;;7.80;99.90;;;;;;1875102;75;21100;-79
2022/02/04 15:43:37;;;;;;;0.60;0.60;;;7.80;99.90;;;;;;1859762;75;21160;-75
2022/02/04 15:46:35;;;;;;;0.90;0.90;;;7.80;99.90;;;;;;1856677;75;21079;-79
2022/02/04 15:51:38;;;;;;;1.05;0.82;;;7.90;99.90;;;;;;1832153;75;21092;-79
2022/02/04 15:59:59;;;;;;;0.80;0.80;;;7.80;99.90;;;;;;1819944;75;21160;-79
2022/02/04 16:06:49;;;;;;;0.78;0.62;;;7.90;99.90;;;;;;1863242;75;21199;-78
2022/02/04 16:09:20;;;;;;;1.60;1.02;;;7.80;99.90;;;;;;1859362;75;21082;-77
2022/02/04 16:12:01;;;;;;;;;;;7.90;99.90;;;;;;1868185;75;21078;-79
2022/02/04 16:15:33;;;;;;;0.60;0.60;;;7.90;99.90;;;;;;1850996;77;20177;-78
2022/02/04 16:17:35;;;;;;;0.62;0.62;;;7.90;99.90;;;;;;1846692;75;21148;-79
2022/02/04 16:19:52;;;;;;;1.75;0.80;;;7.80;99.90;;;;;;1860123;75;21223;-78
2022/02/04 16:30:04;;;;;;;0.70;0.70;;;7.80;99.90;;;;;;1866228;75;21164;-77
2022/02/04 16:32:31;;;;;;;0.88;0.88;;;7.80;99.90;;;;;;1869030;73;21095;-78
2022/02/04 16:35:04;;;;;;;0.78;0.78;;;7.80;99.90;;;;;;1859296;74;21072;-80
2022/02/04 16:37:37;;;;;;;1.85;0.80;;;7.80;99.90;;;;;;1859702;74;21105;-79
2022/02/04 16:40:03;;;;;;;0.62;0.62;;;7.80;99.90;;;;;;1873416;75;21284;-78
2022/02/04 16:42:31;;;;;;;;;;;7.80;99.90;;;;;;1874130;74;21111;-79
2022/02/04 16:45:00;;;;;;;0.82;0.70;;;7.80;99.90;;;;;;1874249;75;20120;-77
2022/02/04 16:47:28;;;;;;;1.00;0.75;;;7.80;99.90;;;;;;1864404;75;21123;-78
2022/02/04 16:49:57;;;;;;;2.08;0.50;;;7.60;99.90;;;;;;1865881;75;21079;-85
2022/02/04 16:52:24;;;;;;;5.10;0.90;;;7.70;99.90;;;;;;1861058;74;21087;-83
2022/02/04 16:54:53;;;;;;;0.90;0.90;;;7.70;99.90;;;;;;1874246;75;21047;-84
2022/02/04 16:57:24;;;;;;;1.55;1.10;;;7.70;99.90;;;;;;1869476;75;21095;-81
2022/02/04 16:59:50;;;;;;;1.25;0.90;;;7.70;99.90;;;;;;1825728;74;21550;-76
2022/02/04 17:02:18;;;;;;;0.85;0.80;;;7.70;99.90;;;;;;1859067;74;21228;-79
2022/02/04 17:04:48;;;;;;;0.70;0.70;;;7.70;99.90;;;;;;1862781;74;21606;-80
2022/02/04 17:07:24;;;;;;;0.85;0.85;;;7.60;99.90;;;;;;1869231;74;21300;-88
2022/02/04 17:09:52;;;;;;;0.80;0.80;;;7.60;99.90;;;;;;1867287;74;21250;-88
2022/02/04 17:12:29;;;;;;;1.55;1.00;;;7.60;99.90;;;;;;1855553;74;21187;-88
2022/02/04 17:14:56;;;;;;;0.82;0.82;;;7.60;99.90;;;;;;1860326;74;21124;-87
2022/02/04 17:17:25;;;;;;;2.00;1.77;;;7.70;99.90;;;;;;1838660;75;21088;-79
2022/02/04 17:20:05;;;;;;;2.67;1.52;;;7.60;99.90;;;;;;1873046;74;21435;-78
2022/02/04 17:22:24;;;;;;;;;;;7.60;99.90;;;;;;1859679;74;21220;-79
2022/02/04 17:24:51;;;;;;;2.22;1.35;;;7.60;99.90;;;;;;1865714;74;20123;-77
2022/02/04 17:27:18;;;;;;;1.37;1.10;;;7.60;99.90;;;;;;1863241;74;21131;-76
2022/02/04 17:29:45;;;;;;;2.37;1.55;;;7.60;99.90;;;;;;1873373;75;21217;-76
2022/02/04 17:32:13;;;;;;;2.60;1.47;;;7.60;99.90;;;;;;1860805;74;21083;-76
2022/02/04 17:34:43;;;;;;;2.17;1.27;;;7.60;99.90;;;;;;1835991;74;21172;-76
2022/02/04 17:37:10;;;;;;;1.57;1.47;;;7.60;99.90;;;;;;1869747;74;21106;-77
2022/02/04 17:39:39;;;;;;;2.72;2.00;;;7.60;99.90;;;;;;1858707;74;21112;-76
2022/02/04 17:42:08;;;;;;;1.22;1.12;;;7.60;99.90;;;;;;1863010;74;21488;-77
2022/02/04 17:44:35;;;;;;;1.67;1.20;;;7.70;99.90;;;;;;1858368;74;21177;-78
2022/02/04 17:47:02;;;;;;;0.60;0.53;;;7.70;99.90;;;;;;1861691;75;21267;-76
2022/02/04 17:49:41;;;;;;;0.53;0.53;;;7.70;99.90;;;;;;1866253;74;21077;-77
2022/02/04 17:52:15;;;;;;;5.50;3.60;;;7.70;99.90;;;;;;1858598;74;21108;-76
2022/02/04 17:54:36;;;;;;;2.12;1.30;;;7.70;99.90;;;;;;1857686;74;21318;-79
2022/02/04 17:59:50;;;;;;;1.27;1.17;;;7.70;99.90;;;;;;1860292;75;21112;-78
2022/02/04 18:02:28;;;;;;;2.20;0.82;;;7.60;99.90;;;;;;1856071;74;21475;-81
2022/02/04 18:07:26;;;;;;;1.25;0.90;;;7.70;99.90;;;;;;1869747;75;21199;-76
2022/02/04 18:09:53;;;;;;;4.37;1.85;;;7.70;99.90;;;;;;1864599;74;21161;-76
2022/02/04 18:12:24;;;;;;;1.02;0.93;;;7.60;99.90;;;;;;1859113;74;21314;-77
2022/02/04 18:14:50;;;;;;;3.60;0.98;;;7.60;99.90;;;;;;1857952;74;21107;-77
2022/02/04 18:17:18;;;;;;;4.17;3.05;;;7.60;99.90;;;;;;1863119;75;21178;-77
2022/02/04 18:19:47;;;;;;;2.12;1.87;;;7.60;99.90;;;;;;1839174;76;21480;-76
2022/02/04 18:22:16;;;;;;;1.27;1.17;;;7.60;99.90;;;;;;1828382;76;21098;-77
2022/02/04 18:24:43;;;;;;;1.22;1.00;;;7.60;99.90;;;;;;1828220;76;21095;-76
2022/02/04 18:27:10;;;;;;;30.30;2.30;;;7.60;99.90;;;;;;1837502;77;21440;-76
2022/02/04 18:29:41;;;;;;;1.32;1.15;;;7.70;99.90;;;;;;1834692;76;21147;-77
2022/02/04 18:32:08;;;;;;;0.98;0.90;;;7.60;99.90;;;;;;1834282;76;21220;-75
2022/02/04 18:34:35;;;;;;;1.62;0.60;;;7.60;99.90;;;;;;1837700;76;21095;-77
2022/02/04 18:37:04;;;;;;;2.02;1.45;;;7.70;99.90;;;;;;1829645;76;21165;-76
2022/02/04 18:44:50;;;;;;;0.53;0.53;;;7.70;99.90;;;;;;1844369;76;21491;-75
2022/02/04 18:50:08;;;;;;;1.15;1.00;;;7.70;99.90;;;;;;1838020;76;21532;-74
2022/02/04 18:52:42;;;;;;;3.62;0.55;;;7.60;99.90;;;;;;1831038;76;21148;-75
2022/02/04 18:57:43;;;;;;;0.62;0.62;;;7.80;99.90;;;;;;1835786;76;21116;-74
2022/02/04 19:00:14;;;;;;;5.47;1.27;;;7.70;99.90;;;;;;1824006;77;21115;-76
2022/02/04 19:02:44;;;;;;;1.63;0.60;;;7.60;99.90;;;;;;1842813;76;21083;-77